Nefterudovoz 47m — UFFP — position and weather

sailwx.info

Track history (hours):
 
Tides and Currents Weather Stations Pressure Air Temp Water Temp Dewpoint Dewpoint Depression Visibility Wind Speed Wind Dir Waves Ship Positions

Nefterudovoz 47m

Last reported at 2016-Jul-17 07:16 UTC. Time now 2016-Jul-27 09:41 UTC.
Position N 47°05' E 039°09'.
Warning: this ship's position is 10 days out of date.

Length 119 m; draft 2.6 m.

Type: Tanker. MMSI: 273347800.

Date/timePositionNaut miles runAvg speedWind from/ knotsBaromVisibWave heightAir tempDewpointWater temp
2016-Jul-17 07:16N 47°05' E 039°09'5 6.8
2016-Jul-17 06:28N 47°03' E 039°02'12 5.9
2016-Jul-17 04:27N 47°04' E 038°44'6 6.6
2016-Jul-17 03:33N 47°00' E 038°37'7 6.8
2016-Jul-17 02:33N 47°00' E 038°27'7 6.9
2016-Jul-17 01:33N 47°00' E 038°17'7 6.8
2016-Jul-17 00:33N 46°58' E 038°07'7 7.0
2016-Jul-16 23:30N 46°55' E 037°58'7 7.1
2016-Jul-16 22:33N 46°53' E 037°48'8 7.4
2016-Jul-16 21:26N 46°51' E 037°36'6 7.0
2016-Jul-16 20:32N 46°47' E 037°29'8 7.7
2016-Jul-16 19:33N 46°40' E 037°26'71 7.6
2016-Jul-16 10:09N 45°33' E 036°50'4 6.2
2016-Jul-16 09:25N 45°29' E 036°48'0 0.2
2016-Jul-16 08:33N 45°29' E 036°48'0 0.0
2016-Jul-16 07:30N 45°29' E 036°48'0 0.0
2016-Jul-16 06:33N 45°29' E 036°48'0 0.0
2016-Jul-16 04:18N 45°29' E 036°48'0 0.0
2016-Jul-16 03:33N 45°29' E 036°48'0 0.1
2016-Jul-16 02:33N 45°29' E 036°48'0 0.0
2016-Jul-16 01:06N 45°29' E 036°48'0 0.0
2016-Jul-16 00:30N 45°29' E 036°48'0 0.0
2016-Jul-15 23:30N 45°29' E 036°48'0 0.0
2016-Jul-15 22:27N 45°29' E 036°48'0 0.0
2016-Jul-15 20:12N 45°29' E 036°48'0 0.0
2016-Jul-15 19:27N 45°29' E 036°48'0 0.0
2016-Jul-15 18:33N 45°29' E 036°48'4 3.7
2016-Jul-15 17:33N 45°26' E 036°44'6 6.5
2016-Jul-15 16:34N 45°21' E 036°39'7 7.5
2016-Jul-15 15:33N 45°18' E 036°29'5 4.9
2016-Jul-15 14:34N 45°13' E 036°29'3 0.4
2016-Jul-15 07:33N 45°11' E 036°30'46 5.7
2016-Jul-14 23:30N 44°39' E 035°44'10 6.9
2016-Jul-14 22:06N 44°36' E 035°31'4 6.8
2016-Jul-14 21:33N 44°35' E 035°26'7 6.8
2016-Jul-14 20:33N 44°32' E 035°17'7 6.8
2016-Jul-14 19:33N 44°29' E 035°08'7 6.9
2016-Jul-14 18:33N 44°27' E 034°59'7 6.9
2016-Jul-14 17:33N 44°25' E 034°50'7 7.0
2016-Jul-14 16:33N 44°23' E 034°40'7 7.1
2016-Jul-14 15:33N 44°20' E 034°31'7 6.9
2016-Jul-14 14:33N 44°17' E 034°22'  
2016-Jul-12 05:24N 45°47' E 031°15'6 7.2
2016-Jul-12 04:33N 45°44' E 031°23'7 6.9
2016-Jul-12 03:32N 45°40' E 031°32'7 7.0
2016-Jul-12 02:33N 45°37' E 031°41'7 7.2
2016-Jul-12 01:33N 45°34' E 031°50'7 7.3
2016-Jul-12 00:33N 45°30' E 031°59'7 7.3
2016-Jul-11 23:33N 45°25' E 032°05'7 7.2
2016-Jul-11 22:33N 45°19' E 032°12'7 7.2
2016-Jul-11 21:33N 45°14' E 032°19'7 7.0
2016-Jul-11 20:32N 45°08' E 032°26'49 7.1
2016-Jul-11 13:33N 44°31' E 033°12'40 6.3
2016-Jul-11 07:11N 44°17' E 034°04'20 7.5
2016-Jul-11 04:33N 44°21' E 034°31'8 8.0
2016-Jul-11 03:33N 44°23' E 034°42'8 7.8
2016-Jul-11 02:32N 44°26' E 034°53'7 7.3
2016-Jul-11 01:33N 44°28' E 035°02'75 6.3
2016-Jul-10 13:33N 45°12' E 036°28'5 4.8
2016-Jul-10 12:33N 45°17' E 036°29'6 6.2
2016-Jul-10 11:33N 45°20' E 036°36'6 6.2
2016-Jul-10 10:33N 45°25' E 036°41'7 7.1
2016-Jul-10 09:33N 45°32' E 036°45'106 6.6
2016-Jul-09 17:31N 46°59' E 038°10'8 6.5
2016-Jul-09 16:17N 47°01' E 038°22'  
Track history (hours):
 
Tides and Currents Weather Stations Pressure Air Temp Water Temp Dewpoint Dewpoint Depression Visibility Wind Speed Wind Dir Waves Ship Positions

Nefterudovoz 47m

Last reported at 2016-Jul-17 07:16 UTC. Time now 2016-Jul-27 09:41 UTC.
Position N 47°05' E 039°09'.
Warning: this ship's position is 10 days out of date.

Length 119 m; draft 2.6 m.

Type: Tanker. MMSI: 273347800.

Date/timePositionNaut miles runAvg speedWind from/ knotsBaromVisibWave heightAir tempDewpointWater temp
2016-Jul-17 07:16N 47°05' E 039°09'5 6.8
2016-Jul-17 06:28N 47°03' E 039°02'12 5.9
2016-Jul-17 04:27N 47°04' E 038°44'6 6.6
2016-Jul-17 03:33N 47°00' E 038°37'7 6.8
2016-Jul-17 02:33N 47°00' E 038°27'7 6.9
2016-Jul-17 01:33N 47°00' E 038°17'7 6.8
2016-Jul-17 00:33N 46°58' E 038°07'7 7.0
2016-Jul-16 23:30N 46°55' E 037°58'7 7.1
2016-Jul-16 22:33N 46°53' E 037°48'8 7.4
2016-Jul-16 21:26N 46°51' E 037°36'6 7.0
2016-Jul-16 20:32N 46°47' E 037°29'8 7.7
2016-Jul-16 19:33N 46°40' E 037°26'71 7.6
2016-Jul-16 10:09N 45°33' E 036°50'4 6.2
2016-Jul-16 09:25N 45°29' E 036°48'0 0.2
2016-Jul-16 08:33N 45°29' E 036°48'0 0.0
2016-Jul-16 07:30N 45°29' E 036°48'0 0.0
2016-Jul-16 06:33N 45°29' E 036°48'0 0.0
2016-Jul-16 04:18N 45°29' E 036°48'0 0.0
2016-Jul-16 03:33N 45°29' E 036°48'0 0.1
2016-Jul-16 02:33N 45°29' E 036°48'0 0.0
2016-Jul-16 01:06N 45°29' E 036°48'0 0.0
2016-Jul-16 00:30N 45°29' E 036°48'0 0.0
2016-Jul-15 23:30N 45°29' E 036°48'0 0.0
2016-Jul-15 22:27N 45°29' E 036°48'0 0.0
2016-Jul-15 20:12N 45°29' E 036°48'0 0.0
2016-Jul-15 19:27N 45°29' E 036°48'0 0.0
2016-Jul-15 18:33N 45°29' E 036°48'4 3.7
2016-Jul-15 17:33N 45°26' E 036°44'6 6.5
2016-Jul-15 16:34N 45°21' E 036°39'7 7.5
2016-Jul-15 15:33N 45°18' E 036°29'5 4.9
2016-Jul-15 14:34N 45°13' E 036°29'3 0.4
2016-Jul-15 07:33N 45°11' E 036°30'46 5.7
2016-Jul-14 23:30N 44°39' E 035°44'10 6.9
2016-Jul-14 22:06N 44°36' E 035°31'4 6.8
2016-Jul-14 21:33N 44°35' E 035°26'7 6.8
2016-Jul-14 20:33N 44°32' E 035°17'7 6.8
2016-Jul-14 19:33N 44°29' E 035°08'7 6.9
2016-Jul-14 18:33N 44°27' E 034°59'7 6.9
2016-Jul-14 17:33N 44°25' E 034°50'7 7.0
2016-Jul-14 16:33N 44°23' E 034°40'7 7.1
2016-Jul-14 15:33N 44°20' E 034°31'7 6.9
2016-Jul-14 14:33N 44°17' E 034°22'  
2016-Jul-12 05:24N 45°47' E 031°15'6 7.2
2016-Jul-12 04:33N 45°44' E 031°23'7 6.9
2016-Jul-12 03:32N 45°40' E 031°32'7 7.0
2016-Jul-12 02:33N 45°37' E 031°41'7 7.2
2016-Jul-12 01:33N 45°34' E 031°50'7 7.3
2016-Jul-12 00:33N 45°30' E 031°59'7 7.3
2016-Jul-11 23:33N 45°25' E 032°05'7 7.2
2016-Jul-11 22:33N 45°19' E 032°12'7 7.2
2016-Jul-11 21:33N 45°14' E 032°19'7 7.0
2016-Jul-11 20:32N 45°08' E 032°26'49 7.1
2016-Jul-11 13:33N 44°31' E 033°12'40 6.3
2016-Jul-11 07:11N 44°17' E 034°04'20 7.5
2016-Jul-11 04:33N 44°21' E 034°31'8 8.0
2016-Jul-11 03:33N 44°23' E 034°42'8 7.8
2016-Jul-11 02:32N 44°26' E 034°53'7 7.3
2016-Jul-11 01:33N 44°28' E 035°02'75 6.3
2016-Jul-10 13:33N 45°12' E 036°28'5 4.8
2016-Jul-10 12:33N 45°17' E 036°29'6 6.2
2016-Jul-10 11:33N 45°20' E 036°36'6 6.2
2016-Jul-10 10:33N 45°25' E 036°41'7 7.1
2016-Jul-10 09:33N 45°32' E 036°45'106 6.6
2016-Jul-09 17:31N 46°59' E 038°10'8 6.5
2016-Jul-09 16:17N 47°01' E 038°22'  

Dump ship's entire track history